sensor_id;sensor_type;location;lat;lon;timestamp;P1;durP1;ratioP1;P2;durP2;ratioP2
52434;SDS011;38354;52.892;6.148;2023-06-14T03:02:39;7.70;;;2.60;;
52434;SDS011;38354;52.892;6.148;2023-06-14T03:05:07;6.05;;;2.60;;
52434;SDS011;38354;52.892;6.148;2023-06-14T03:07:33;4.82;;;2.60;;
52434;SDS011;38354;52.892;6.148;2023-06-14T03:09:59;4.15;;;2.65;;
52434;SDS011;38354;52.892;6.148;2023-06-14T03:12:25;4.55;;;2.33;;
52434;SDS011;38354;52.892;6.148;2023-06-14T03:14:51;7.78;;;2.70;;
52434;SDS011;38354;52.892;6.148;2023-06-14T03:17:18;6.18;;;2.55;;
52434;SDS011;38354;52.892;6.148;2023-06-14T03:19:44;5.00;;;2.30;;
52434;SDS011;38354;52.892;6.148;2023-06-14T03:22:10;6.45;;;2.53;;
52434;SDS011;38354;52.892;6.148;2023-06-14T03:24:36;12.73;;;2.85;;
52434;SDS011;38354;52.892;6.148;2023-06-14T03:27:02;4.35;;;2.38;;
52434;SDS011;38354;52.892;6.148;2023-06-14T03:29:28;4.50;;;2.50;;
52434;SDS011;38354;52.892;6.148;2023-06-14T03:31:58;5.15;;;2.83;;
52434;SDS011;38354;52.892;6.148;2023-06-14T03:34:26;5.93;;;2.90;;
52434;SDS011;38354;52.892;6.148;2023-06-14T03:36:51;5.32;;;2.45;;
52434;SDS011;38354;52.892;6.148;2023-06-14T03:39:17;8.80;;;2.70;;
52434;SDS011;38354;52.892;6.148;2023-06-14T03:41:44;6.22;;;2.65;;
52434;SDS011;38354;52.892;6.148;2023-06-14T03:44:10;7.47;;;2.28;;
52434;SDS011;38354;52.892;6.148;2023-06-14T03:46:35;5.90;;;2.50;;
52434;SDS011;38354;52.892;6.148;2023-06-14T03:49:01;5.35;;;2.40;;
52434;SDS011;38354;52.892;6.148;2023-06-14T03:51:27;3.58;;;2.03;;
52434;SDS011;38354;52.892;6.148;2023-06-14T03:53:54;6.45;;;2.30;;
52434;SDS011;38354;52.892;6.148;2023-06-14T03:56:20;3.90;;;2.13;;
52434;SDS011;38354;52.892;6.148;2023-06-14T03:58:46;8.52;;;2.90;;
52434;SDS011;38354;52.892;6.148;2023-06-14T04:01:12;4.95;;;2.20;;
52434;SDS011;38354;52.892;6.148;2023-06-14T04:03:37;10.30;;;3.08;;
52434;SDS011;38354;52.892;6.148;2023-06-14T04:06:05;5.47;;;2.70;;
52434;SDS011;38354;52.892;6.148;2023-06-14T04:08:31;6.70;;;2.58;;
52434;SDS011;38354;52.892;6.148;2023-06-14T04:10:57;7.50;;;2.75;;
52434;SDS011;38354;52.892;6.148;2023-06-14T04:13:23;7.72;;;2.90;;
52434;SDS011;38354;52.892;6.148;2023-06-14T04:15:48;4.03;;;2.13;;
52434;SDS011;38354;52.892;6.148;2023-06-14T04:18:14;5.57;;;2.38;;
52434;SDS011;38354;52.892;6.148;2023-06-14T04:20:40;5.53;;;2.38;;
52434;SDS011;38354;52.892;6.148;2023-06-14T04:23:15;4.13;;;2.30;;
52434;SDS011;38354;52.892;6.148;2023-06-14T04:25:46;8.55;;;2.83;;
52434;SDS011;38354;52.892;6.148;2023-06-14T04:28:15;6.70;;;3.08;;
52434;SDS011;38354;52.892;6.148;2023-06-14T04:30:42;8.35;;;2.50;;
52434;SDS011;38354;52.892;6.148;2023-06-14T04:33:08;7.05;;;2.92;;
52434;SDS011;38354;52.892;6.148;2023-06-14T04:35:35;5.88;;;2.42;;
52434;SDS011;38354;52.892;6.148;2023-06-14T04:38:02;5.93;;;2.63;;
52434;SDS011;38354;52.892;6.148;2023-06-14T04:40:34;6.25;;;2.40;;
52434;SDS011;38354;52.892;6.148;2023-06-14T04:43:07;8.10;;;2.25;;
52434;SDS011;38354;52.892;6.148;2023-06-14T04:45:33;7.70;;;2.60;;
52434;SDS011;38354;52.892;6.148;2023-06-14T04:47:59;9.02;;;3.03;;
52434;SDS011;38354;52.892;6.148;2023-06-14T04:50:25;5.07;;;2.60;;
52434;SDS011;38354;52.892;6.148;2023-06-14T04:52:52;5.70;;;2.40;;
52434;SDS011;38354;52.892;6.148;2023-06-14T04:55:18;3.95;;;2.40;;
52434;SDS011;38354;52.892;6.148;2023-06-14T04:57:45;4.55;;;2.30;;
52434;SDS011;38354;52.892;6.148;2023-06-14T05:00:11;4.78;;;2.22;;
52434;SDS011;38354;52.892;6.148;2023-06-14T05:02:37;7.38;;;2.40;;
52434;SDS011;38354;52.892;6.148;2023-06-14T05:05:04;6.13;;;2.60;;
52434;SDS011;38354;52.892;6.148;2023-06-14T05:07:32;5.95;;;2.60;;
52434;SDS011;38354;52.892;6.148;2023-06-14T05:09:59;6.32;;;2.35;;
52434;SDS011;38354;52.892;6.148;2023-06-14T05:12:25;6.78;;;2.78;;
52434;SDS011;38354;52.892;6.148;2023-06-14T05:14:51;7.72;;;3.40;;
52434;SDS011;38354;52.892;6.148;2023-06-14T05:17:16;6.22;;;2.78;;
52434;SDS011;38354;52.892;6.148;2023-06-14T05:19:42;9.07;;;3.05;;
52434;SDS011;38354;52.892;6.148;2023-06-14T05:22:08;8.60;;;3.20;;
52434;SDS011;38354;52.892;6.148;2023-06-14T05:24:33;7.43;;;2.97;;
52434;SDS011;38354;52.892;6.148;2023-06-14T05:26:59;7.63;;;2.90;;
52434;SDS011;38354;52.892;6.148;2023-06-14T05:29:25;8.15;;;2.63;;
52434;SDS011;38354;52.892;6.148;2023-06-14T05:31:52;5.25;;;2.65;;
52434;SDS011;38354;52.892;6.148;2023-06-14T05:34:18;4.43;;;2.88;;
52434;SDS011;38354;52.892;6.148;2023-06-14T05:36:44;8.70;;;3.08;;
52434;SDS011;38354;52.892;6.148;2023-06-14T05:39:10;7.38;;;3.20;;
52434;SDS011;38354;52.892;6.148;2023-06-14T05:41:35;7.13;;;2.88;;
52434;SDS011;38354;52.892;6.148;2023-06-14T05:44:01;9.30;;;2.95;;
52434;SDS011;38354;52.892;6.148;2023-06-14T05:46:27;6.35;;;2.50;;
52434;SDS011;38354;52.892;6.148;2023-06-14T05:48:53;4.95;;;2.95;;
52434;SDS011;38354;52.892;6.148;2023-06-14T05:51:20;6.68;;;2.88;;
52434;SDS011;38354;52.892;6.148;2023-06-14T05:53:46;4.50;;;2.70;;
52434;SDS011;38354;52.892;6.148;2023-06-14T05:56:12;10.43;;;2.90;;
52434;SDS011;38354;52.892;6.148;2023-06-14T05:58:39;9.68;;;2.83;;
52434;SDS011;38354;52.892;6.148;2023-06-14T06:01:05;6.05;;;2.83;;
52434;SDS011;38354;52.892;6.148;2023-06-14T06:03:31;6.93;;;2.60;;
52434;SDS011;38354;52.892;6.148;2023-06-14T06:05:57;7.43;;;3.15;;
52434;SDS011;38354;52.892;6.148;2023-06-14T06:08:23;4.75;;;2.90;;
52434;SDS011;38354;52.892;6.148;2023-06-14T06:10:49;7.60;;;2.83;;
52434;SDS011;38354;52.892;6.148;2023-06-14T06:13:15;6.68;;;2.88;;
52434;SDS011;38354;52.892;6.148;2023-06-14T06:15:41;7.65;;;2.50;;
52434;SDS011;38354;52.892;6.148;2023-06-14T06:18:06;4.75;;;2.35;;
52434;SDS011;38354;52.892;6.148;2023-06-14T06:20:32;7.03;;;2.30;;
52434;SDS011;38354;52.892;6.148;2023-06-14T06:22:58;8.50;;;2.60;;
52434;SDS011;38354;52.892;6.148;2023-06-14T06:25:24;9.98;;;3.17;;
52434;SDS011;38354;52.892;6.148;2023-06-14T06:27:51;5.85;;;2.17;;
52434;SDS011;38354;52.892;6.148;2023-06-14T06:30:18;4.20;;;2.10;;
52434;SDS011;38354;52.892;6.148;2023-06-14T06:32:44;8.13;;;2.30;;
52434;SDS011;38354;52.892;6.148;2023-06-14T06:35:11;7.38;;;2.40;;
52434;SDS011;38354;52.892;6.148;2023-06-14T06:37:38;6.50;;;2.80;;
52434;SDS011;38354;52.892;6.148;2023-06-14T06:40:04;6.63;;;2.20;;
52434;SDS011;38354;52.892;6.148;2023-06-14T06:42:31;7.43;;;2.35;;
52434;SDS011;38354;52.892;6.148;2023-06-14T06:44:57;8.25;;;2.38;;
52434;SDS011;38354;52.892;6.148;2023-06-14T06:47:23;4.45;;;2.13;;
52434;SDS011;38354;52.892;6.148;2023-06-14T06:49:48;4.32;;;1.75;;
52434;SDS011;38354;52.892;6.148;2023-06-14T06:52:14;6.22;;;2.10;;
52434;SDS011;38354;52.892;6.148;2023-06-14T06:54:40;4.05;;;2.30;;
52434;SDS011;38354;52.892;6.148;2023-06-14T06:57:06;4.47;;;2.20;;
52434;SDS011;38354;52.892;6.148;2023-06-14T06:59:32;5.07;;;2.08;;
52434;SDS011;38354;52.892;6.148;2023-06-14T07:01:58;4.00;;;2.08;;
52434;SDS011;38354;52.892;6.148;2023-06-14T07:04:24;4.82;;;1.80;;
52434;SDS011;38354;52.892;6.148;2023-06-14T07:06:50;4.88;;;2.20;;
52434;SDS011;38354;52.892;6.148;2023-06-14T07:09:16;5.63;;;2.35;;
52434;SDS011;38354;52.892;6.148;2023-06-14T07:11:45;5.18;;;2.28;;
52434;SDS011;38354;52.892;6.148;2023-06-14T07:14:11;5.57;;;2.22;;
52434;SDS011;38354;52.892;6.148;2023-06-14T07:16:37;5.00;;;2.20;;
52434;SDS011;38354;52.892;6.148;2023-06-14T07:19:03;7.85;;;2.33;;
52434;SDS011;38354;52.892;6.148;2023-06-14T07:21:30;3.45;;;2.17;;
52434;SDS011;38354;52.892;6.148;2023-06-14T07:23:56;7.13;;;2.10;;
52434;SDS011;38354;52.892;6.148;2023-06-14T07:26:22;5.10;;;2.50;;
52434;SDS011;38354;52.892;6.148;2023-06-14T07:28:47;3.83;;;2.30;;
52434;SDS011;38354;52.892;6.148;2023-06-14T07:31:14;4.78;;;2.30;;
52434;SDS011;38354;52.892;6.148;2023-06-14T07:33:40;4.53;;;2.10;;
52434;SDS011;38354;52.892;6.148;2023-06-14T07:36:07;5.68;;;2.15;;
52434;SDS011;38354;52.892;6.148;2023-06-14T07:38:33;4.80;;;2.05;;
52434;SDS011;38354;52.892;6.148;2023-06-14T07:40:59;3.38;;;1.80;;
52434;SDS011;38354;52.892;6.148;2023-06-14T07:43:25;5.45;;;2.13;;
52434;SDS011;38354;52.892;6.148;2023-06-14T07:45:51;9.43;;;2.03;;
52434;SDS011;38354;52.892;6.148;2023-06-14T07:48:17;4.00;;;2.53;;
52434;SDS011;38354;52.892;6.148;2023-06-14T07:50:43;5.03;;;2.13;;
52434;SDS011;38354;52.892;6.148;2023-06-14T07:53:08;5.35;;;2.83;;
52434;SDS011;38354;52.892;6.148;2023-06-14T07:55:35;6.20;;;2.10;;
52434;SDS011;38354;52.892;6.148;2023-06-14T07:58:05;3.35;;;2.20;;
52434;SDS011;38354;52.892;6.148;2023-06-14T08:00:31;5.78;;;2.10;;
52434;SDS011;38354;52.892;6.148;2023-06-14T08:02:57;4.20;;;2.28;;
52434;SDS011;38354;52.892;6.148;2023-06-14T08:05:27;3.88;;;2.00;;
52434;SDS011;38354;52.892;6.148;2023-06-14T08:07:54;6.00;;;2.40;;
52434;SDS011;38354;52.892;6.148;2023-06-14T08:10:20;4.28;;;2.10;;
52434;SDS011;38354;52.892;6.148;2023-06-14T08:12:46;6.57;;;2.25;;
52434;SDS011;38354;52.892;6.148;2023-06-14T08:15:13;5.53;;;2.13;;
52434;SDS011;38354;52.892;6.148;2023-06-14T08:17:39;4.68;;;1.75;;
52434;SDS011;38354;52.892;6.148;2023-06-14T08:20:05;6.22;;;2.35;;
52434;SDS011;38354;52.892;6.148;2023-06-14T08:22:31;3.90;;;2.17;;
52434;SDS011;38354;52.892;6.148;2023-06-14T08:25:01;6.60;;;1.98;;
52434;SDS011;38354;52.892;6.148;2023-06-14T08:27:27;5.18;;;2.10;;
52434;SDS011;38354;52.892;6.148;2023-06-14T08:29:52;7.47;;;2.05;;
52434;SDS011;38354;52.892;6.148;2023-06-14T08:32:18;3.92;;;1.75;;
52434;SDS011;38354;52.892;6.148;2023-06-14T08:34:44;4.40;;;1.90;;
52434;SDS011;38354;52.892;6.148;2023-06-14T08:37:10;3.20;;;1.83;;
52434;SDS011;38354;52.892;6.148;2023-06-14T08:39:35;4.28;;;2.13;;
52434;SDS011;38354;52.892;6.148;2023-06-14T08:42:02;6.57;;;2.00;;
52434;SDS011;38354;52.892;6.148;2023-06-14T08:44:31;4.93;;;1.95;;
52434;SDS011;38354;52.892;6.148;2023-06-14T08:46:57;6.68;;;2.03;;
52434;SDS011;38354;52.892;6.148;2023-06-14T08:49:25;5.43;;;1.90;;
52434;SDS011;38354;52.892;6.148;2023-06-14T08:51:57;3.45;;;2.03;;
52434;SDS011;38354;52.892;6.148;2023-06-14T08:54:28;6.40;;;1.83;;
52434;SDS011;38354;52.892;6.148;2023-06-14T08:57:00;6.35;;;2.03;;
52434;SDS011;38354;52.892;6.148;2023-06-14T08:59:27;4.00;;;1.92;;
52434;SDS011;38354;52.892;6.148;2023-06-14T09:01:53;5.30;;;1.98;;
52434;SDS011;38354;52.892;6.148;2023-06-14T09:04:20;4.28;;;1.90;;
52434;SDS011;38354;52.892;6.148;2023-06-14T09:06:54;3.42;;;2.00;;
52434;SDS011;38354;52.892;6.148;2023-06-14T09:09:21;9.60;;;2.00;;
52434;SDS011;38354;52.892;6.148;2023-06-14T09:11:48;5.93;;;2.00;;
52434;SDS011;38354;52.892;6.148;2023-06-14T09:14:15;7.65;;;1.85;;
52434;SDS011;38354;52.892;6.148;2023-06-14T09:16:40;4.97;;;1.67;;
52434;SDS011;38354;52.892;6.148;2023-06-14T09:19:06;3.72;;;2.20;;
52434;SDS011;38354;52.892;6.148;2023-06-14T09:21:33;6.10;;;2.20;;
52434;SDS011;38354;52.892;6.148;2023-06-14T09:24:01;4.55;;;1.75;;
52434;SDS011;38354;52.892;6.148;2023-06-14T09:26:27;3.63;;;1.67;;
52434;SDS011;38354;52.892;6.148;2023-06-14T09:28:53;4.65;;;1.75;;
52434;SDS011;38354;52.892;6.148;2023-06-14T09:31:21;7.32;;;1.83;;
52434;SDS011;38354;52.892;6.148;2023-06-14T09:33:50;6.95;;;1.90;;
52434;SDS011;38354;52.892;6.148;2023-06-14T09:36:16;5.22;;;1.63;;
52434;SDS011;38354;52.892;6.148;2023-06-14T09:38:56;3.80;;;1.60;;
52434;SDS011;38354;52.892;6.148;2023-06-14T09:41:34;4.43;;;1.60;;
52434;SDS011;38354;52.892;6.148;2023-06-14T09:44:05;8.50;;;1.85;;
52434;SDS011;38354;52.892;6.148;2023-06-14T09:46:32;4.97;;;1.70;;
52434;SDS011;38354;52.892;6.148;2023-06-14T09:49:00;5.63;;;1.70;;
52434;SDS011;38354;52.892;6.148;2023-06-14T09:51:27;4.97;;;1.75;;
52434;SDS011;38354;52.892;6.148;2023-06-14T09:53:56;6.75;;;1.63;;
52434;SDS011;38354;52.892;6.148;2023-06-14T09:56:29;8.93;;;2.30;;
52434;SDS011;38354;52.892;6.148;2023-06-14T09:59:03;9.30;;;1.80;;
52434;SDS011;38354;52.892;6.148;2023-06-14T10:01:32;6.63;;;1.80;;
52434;SDS011;38354;52.892;6.148;2023-06-14T10:04:06;4.90;;;2.15;;
52434;SDS011;38354;52.892;6.148;2023-06-14T10:06:34;9.93;;;2.10;;
52434;SDS011;38354;52.892;6.148;2023-06-14T10:09:02;6.32;;;2.03;;
52434;SDS011;38354;52.892;6.148;2023-06-14T10:11:29;5.35;;;1.60;;
52434;SDS011;38354;52.892;6.148;2023-06-14T10:13:55;6.50;;;2.08;;
52434;SDS011;38354;52.892;6.148;2023-06-14T10:16:30;5.10;;;1.90;;
52434;SDS011;38354;52.892;6.148;2023-06-14T10:24:23;4.70;;;1.83;;
52434;SDS011;38354;52.892;6.148;2023-06-14T10:27:01;4.05;;;2.03;;
52434;SDS011;38354;52.892;6.148;2023-06-14T10:29:29;4.38;;;2.00;;
52434;SDS011;38354;52.892;6.148;2023-06-14T10:31:57;6.82;;;1.98;;
52434;SDS011;38354;52.892;6.148;2023-06-14T10:34:28;4.00;;;1.60;;
52434;SDS011;38354;52.892;6.148;2023-06-14T10:36:59;8.25;;;1.90;;
52434;SDS011;38354;52.892;6.148;2023-06-14T10:39:46;6.20;;;1.90;;
52434;SDS011;38354;52.892;6.148;2023-06-14T10:42:12;4.57;;;1.73;;
52434;SDS011;38354;52.892;6.148;2023-06-14T10:44:38;4.68;;;1.92;;
52434;SDS011;38354;52.892;6.148;2023-06-14T10:49:56;3.45;;;1.55;;
52434;SDS011;38354;52.892;6.148;2023-06-14T10:52:29;4.93;;;1.50;;
52434;SDS011;38354;52.892;6.148;2023-06-14T10:57:30;4.45;;;1.40;;
52434;SDS011;38354;52.892;6.148;2023-06-14T10:59:58;3.63;;;1.50;;
52434;SDS011;38354;52.892;6.148;2023-06-14T11:05:25;2.80;;;1.20;;
52434;SDS011;38354;52.892;6.148;2023-06-14T11:07:58;6.00;;;1.33;;
52434;SDS011;38354;52.892;6.148;2023-06-14T11:10:40;6.00;;;1.40;;
52434;SDS011;38354;52.892;6.148;2023-06-14T11:13:07;9.30;;;1.70;;
52434;SDS011;38354;52.892;6.148;2023-06-14T11:15:36;6.03;;;1.30;;
52434;SDS011;38354;52.892;6.148;2023-06-14T11:18:07;3.55;;;1.30;;
52434;SDS011;38354;52.892;6.148;2023-06-14T11:20:35;3.55;;;1.50;;
52434;SDS011;38354;52.892;6.148;2023-06-14T11:23:01;3.72;;;1.27;;
52434;SDS011;38354;52.892;6.148;2023-06-14T11:25:28;3.65;;;1.27;;
52434;SDS011;38354;52.892;6.148;2023-06-14T11:27:54;2.03;;;1.10;;
52434;SDS011;38354;52.892;6.148;2023-06-14T11:30:20;4.07;;;1.38;;
52434;SDS011;38354;52.892;6.148;2023-06-14T11:32:46;2.20;;;1.30;;
52434;SDS011;38354;52.892;6.148;2023-06-14T11:35:13;6.90;;;1.25;;
52434;SDS011;38354;52.892;6.148;2023-06-14T11:37:39;4.22;;;1.17;;
52434;SDS011;38354;52.892;6.148;2023-06-14T11:40:07;3.65;;;1.10;;
52434;SDS011;38354;52.892;6.148;2023-06-14T11:42:35;4.15;;;1.20;;
52434;SDS011;38354;52.892;6.148;2023-06-14T11:45:01;5.93;;;1.23;;
52434;SDS011;38354;52.892;6.148;2023-06-14T11:47:34;4.72;;;1.30;;
52434;SDS011;38354;52.892;6.148;2023-06-14T11:50:01;3.45;;;1.23;;
52434;SDS011;38354;52.892;6.148;2023-06-14T11:52:27;3.85;;;1.42;;
52434;SDS011;38354;52.892;6.148;2023-06-14T11:54:53;2.28;;;1.25;;
52434;SDS011;38354;52.892;6.148;2023-06-14T11:57:19;4.43;;;1.35;;
52434;SDS011;38354;52.892;6.148;2023-06-14T11:59:45;2.38;;;1.30;;
52434;SDS011;38354;52.892;6.148;2023-06-14T12:02:18;3.78;;;1.48;;
52434;SDS011;38354;52.892;6.148;2023-06-14T12:04:47;5.18;;;1.35;;
52434;SDS011;38354;52.892;6.148;2023-06-14T12:07:14;3.65;;;1.00;;
52434;SDS011;38354;52.892;6.148;2023-06-14T12:09:42;6.70;;;1.30;;
52434;SDS011;38354;52.892;6.148;2023-06-14T12:12:17;3.20;;;0.95;;
52434;SDS011;38354;52.892;6.148;2023-06-14T12:14:43;3.88;;;1.40;;
52434;SDS011;38354;52.892;6.148;2023-06-14T12:17:08;2.90;;;1.30;;
52434;SDS011;38354;52.892;6.148;2023-06-14T12:19:44;4.50;;;1.42;;
52434;SDS011;38354;52.892;6.148;2023-06-14T12:22:11;4.20;;;1.30;;
52434;SDS011;38354;52.892;6.148;2023-06-14T12:24:37;5.47;;;1.60;;
52434;SDS011;38354;52.892;6.148;2023-06-14T12:27:04;4.53;;;1.50;;
52434;SDS011;38354;52.892;6.148;2023-06-14T12:29:30;3.20;;;1.20;;
52434;SDS011;38354;52.892;6.148;2023-06-14T12:31:57;3.45;;;1.40;;
52434;SDS011;38354;52.892;6.148;2023-06-14T12:34:23;4.38;;;1.33;;
52434;SDS011;38354;52.892;6.148;2023-06-14T12:36:50;4.38;;;1.42;;
52434;SDS011;38354;52.892;6.148;2023-06-14T12:39:16;3.22;;;1.30;;
52434;SDS011;38354;52.892;6.148;2023-06-14T12:41:42;2.65;;;1.48;;
52434;SDS011;38354;52.892;6.148;2023-06-14T12:44:07;2.72;;;1.40;;
52434;SDS011;38354;52.892;6.148;2023-06-14T12:46:33;5.82;;;1.58;;
52434;SDS011;38354;52.892;6.148;2023-06-14T12:49:00;2.63;;;1.40;;
52434;SDS011;38354;52.892;6.148;2023-06-14T12:51:26;3.92;;;1.38;;
52434;SDS011;38354;52.892;6.148;2023-06-14T12:53:51;2.70;;;1.52;;
52434;SDS011;38354;52.892;6.148;2023-06-14T12:56:17;5.70;;;1.70;;
52434;SDS011;38354;52.892;6.148;2023-06-14T12:58:43;3.70;;;1.70;;
52434;SDS011;38354;52.892;6.148;2023-06-14T13:01:09;3.30;;;1.27;;
52434;SDS011;38354;52.892;6.148;2023-06-14T13:03:34;6.63;;;1.60;;
52434;SDS011;38354;52.892;6.148;2023-06-14T13:06:00;9.70;;;1.40;;
52434;SDS011;38354;52.892;6.148;2023-06-14T13:08:28;3.85;;;1.20;;
52434;SDS011;38354;52.892;6.148;2023-06-14T13:10:53;3.20;;;1.50;;
52434;SDS011;38354;52.892;6.148;2023-06-14T13:13:19;3.03;;;1.40;;
52434;SDS011;38354;52.892;6.148;2023-06-14T13:15:45;3.88;;;1.38;;
52434;SDS011;38354;52.892;6.148;2023-06-14T13:18:11;3.97;;;1.50;;
52434;SDS011;38354;52.892;6.148;2023-06-14T13:20:40;2.85;;;1.40;;
52434;SDS011;38354;52.892;6.148;2023-06-14T13:23:05;2.70;;;1.30;;
52434;SDS011;38354;52.892;6.148;2023-06-14T13:25:38;8.05;;;1.80;;
52434;SDS011;38354;52.892;6.148;2023-06-14T13:28:04;2.80;;;1.70;;
52434;SDS011;38354;52.892;6.148;2023-06-14T13:30:30;6.30;;;1.33;;
52434;SDS011;38354;52.892;6.148;2023-06-14T13:32:57;2.67;;;1.40;;
52434;SDS011;38354;52.892;6.148;2023-06-14T13:35:23;3.63;;;1.50;;
52434;SDS011;38354;52.892;6.148;2023-06-14T13:37:50;5.38;;;1.50;;
52434;SDS011;38354;52.892;6.148;2023-06-14T13:40:15;5.35;;;1.90;;
52434;SDS011;38354;52.892;6.148;2023-06-14T13:42:41;3.28;;;1.42;;
52434;SDS011;38354;52.892;6.148;2023-06-14T13:45:08;5.57;;;1.40;;
52434;SDS011;38354;52.892;6.148;2023-06-14T13:47:35;2.83;;;1.30;;
52434;SDS011;38354;52.892;6.148;2023-06-14T13:50:00;3.35;;;1.23;;
52434;SDS011;38354;52.892;6.148;2023-06-14T13:52:28;4.70;;;1.30;;
52434;SDS011;38354;52.892;6.148;2023-06-14T13:54:53;5.25;;;1.42;;
52434;SDS011;38354;52.892;6.148;2023-06-14T13:57:19;3.42;;;1.23;;
52434;SDS011;38354;52.892;6.148;2023-06-14T13:59:45;4.32;;;1.25;;
52434;SDS011;38354;52.892;6.148;2023-06-14T14:02:10;4.20;;;1.77;;
52434;SDS011;38354;52.892;6.148;2023-06-14T14:04:37;5.03;;;1.52;;
52434;SDS011;38354;52.892;6.148;2023-06-14T14:07:03;2.95;;;1.50;;
52434;SDS011;38354;52.892;6.148;2023-06-14T14:09:30;3.50;;;2.00;;
52434;SDS011;38354;52.892;6.148;2023-06-14T14:11:57;5.05;;;1.60;;
52434;SDS011;38354;52.892;6.148;2023-06-14T14:14:23;4.15;;;1.35;;
52434;SDS011;38354;52.892;6.148;2023-06-14T14:16:49;8.57;;;1.42;;
52434;SDS011;38354;52.892;6.148;2023-06-14T14:19:16;4.53;;;1.45;;
52434;SDS011;38354;52.892;6.148;2023-06-14T14:21:44;4.68;;;1.25;;
52434;SDS011;38354;52.892;6.148;2023-06-14T14:24:10;4.72;;;1.20;;
52434;SDS011;38354;52.892;6.148;2023-06-14T14:26:36;5.40;;;1.50;;
52434;SDS011;38354;52.892;6.148;2023-06-14T14:29:01;6.93;;;1.42;;
52434;SDS011;38354;52.892;6.148;2023-06-14T14:31:27;3.90;;;1.40;;
52434;SDS011;38354;52.892;6.148;2023-06-14T14:33:53;2.20;;;1.27;;
52434;SDS011;38354;52.892;6.148;2023-06-14T14:36:19;7.15;;;1.33;;
52434;SDS011;38354;52.892;6.148;2023-06-14T14:38:45;3.38;;;1.50;;
52434;SDS011;38354;52.892;6.148;2023-06-14T14:41:12;6.13;;;1.60;;
52434;SDS011;38354;52.892;6.148;2023-06-14T14:43:38;5.20;;;1.30;;
52434;SDS011;38354;52.892;6.148;2023-06-14T14:46:04;6.03;;;1.40;;
52434;SDS011;38354;52.892;6.148;2023-06-14T14:48:29;4.57;;;1.40;;
52434;SDS011;38354;52.892;6.148;2023-06-14T14:50:55;6.72;;;1.63;;
52434;SDS011;38354;52.892;6.148;2023-06-14T14:53:21;5.85;;;1.92;;
52434;SDS011;38354;52.892;6.148;2023-06-14T14:55:46;3.15;;;1.25;;
52434;SDS011;38354;52.892;6.148;2023-06-14T14:58:12;4.60;;;1.30;;
52434;SDS011;38354;52.892;6.148;2023-06-14T15:00:42;3.60;;;1.42;;
52434;SDS011;38354;52.892;6.148;2023-06-14T15:03:07;3.25;;;1.05;;
52434;SDS011;38354;52.892;6.148;2023-06-14T15:05:33;5.55;;;1.60;;
52434;SDS011;38354;52.892;6.148;2023-06-14T15:07:59;4.47;;;1.35;;
52434;SDS011;38354;52.892;6.148;2023-06-14T15:10:24;9.43;;;1.58;;
52434;SDS011;38354;52.892;6.148;2023-06-14T15:12:50;3.28;;;1.58;;
52434;SDS011;38354;52.892;6.148;2023-06-14T15:15:16;7.00;;;1.52;;
52434;SDS011;38354;52.892;6.148;2023-06-14T15:17:41;3.90;;;1.30;;
52434;SDS011;38354;52.892;6.148;2023-06-14T15:20:07;2.95;;;1.40;;
52434;SDS011;38354;52.892;6.148;2023-06-14T15:22:33;4.25;;;1.45;;
52434;SDS011;38354;52.892;6.148;2023-06-14T15:24:58;3.67;;;1.40;;
52434;SDS011;38354;52.892;6.148;2023-06-14T15:27:24;2.10;;;1.58;;
52434;SDS011;38354;52.892;6.148;2023-06-14T15:29:50;6.55;;;1.48;;
52434;SDS011;38354;52.892;6.148;2023-06-14T15:32:16;4.45;;;1.40;;
52434;SDS011;38354;52.892;6.148;2023-06-14T15:34:42;3.58;;;1.60;;
52434;SDS011;38354;52.892;6.148;2023-06-14T15:37:07;5.95;;;2.10;;
52434;SDS011;38354;52.892;6.148;2023-06-14T15:39:33;4.45;;;1.45;;
52434;SDS011;38354;52.892;6.148;2023-06-14T15:41:59;4.47;;;1.42;;
52434;SDS011;38354;52.892;6.148;2023-06-14T15:44:25;2.45;;;1.52;;
52434;SDS011;38354;52.892;6.148;2023-06-14T15:46:51;2.03;;;1.40;;
52434;SDS011;38354;52.892;6.148;2023-06-14T15:49:17;5.22;;;1.60;;
52434;SDS011;38354;52.892;6.148;2023-06-14T15:51:44;4.75;;;1.48;;
52434;SDS011;38354;52.892;6.148;2023-06-14T15:54:10;3.17;;;1.50;;
52434;SDS011;38354;52.892;6.148;2023-06-14T15:56:35;4.72;;;1.75;;
52434;SDS011;38354;52.892;6.148;2023-06-14T15:59:01;3.55;;;1.27;;
52434;SDS011;38354;52.892;6.148;2023-06-14T16:01:27;4.35;;;1.45;;
52434;SDS011;38354;52.892;6.148;2023-06-14T16:03:53;4.35;;;1.45;;
52434;SDS011;38354;52.892;6.148;2023-06-14T16:06:21;3.67;;;1.33;;
52434;SDS011;38354;52.892;6.148;2023-06-14T16:08:46;2.63;;;1.50;;
52434;SDS011;38354;52.892;6.148;2023-06-14T16:11:12;4.88;;;1.67;;
52434;SDS011;38354;52.892;6.148;2023-06-14T16:13:39;4.22;;;1.40;;
52434;SDS011;38354;52.892;6.148;2023-06-14T16:16:06;2.40;;;1.38;;
52434;SDS011;38354;52.892;6.148;2023-06-14T16:18:33;3.28;;;1.40;;
52434;SDS011;38354;52.892;6.148;2023-06-14T16:20:59;6.78;;;1.65;;
52434;SDS011;38354;52.892;6.148;2023-06-14T16:23:25;2.42;;;1.45;;
52434;SDS011;38354;52.892;6.148;2023-06-14T16:25:50;3.83;;;1.60;;
52434;SDS011;38354;52.892;6.148;2023-06-14T16:28:16;5.53;;;1.70;;
52434;SDS011;38354;52.892;6.148;2023-06-14T16:30:42;2.28;;;1.60;;
52434;SDS011;38354;52.892;6.148;2023-06-14T16:33:07;2.67;;;1.50;;
52434;SDS011;38354;52.892;6.148;2023-06-14T16:35:33;5.00;;;1.63;;
52434;SDS011;38354;52.892;6.148;2023-06-14T16:37:59;5.07;;;1.73;;
52434;SDS011;38354;52.892;6.148;2023-06-14T16:40:25;6.53;;;1.80;;
52434;SDS011;38354;52.892;6.148;2023-06-14T16:42:51;4.85;;;1.75;;
52434;SDS011;38354;52.892;6.148;2023-06-14T16:45:16;6.68;;;1.98;;
52434;SDS011;38354;52.892;6.148;2023-06-14T16:47:42;3.67;;;1.50;;
52434;SDS011;38354;52.892;6.148;2023-06-14T16:50:08;5.60;;;1.80;;
52434;SDS011;38354;52.892;6.148;2023-06-14T16:52:34;3.42;;;1.98;;
52434;SDS011;38354;52.892;6.148;2023-06-14T16:54:59;5.20;;;1.80;;
52434;SDS011;38354;52.892;6.148;2023-06-14T16:57:25;5.07;;;2.00;;
52434;SDS011;38354;52.892;6.148;2023-06-14T16:59:51;4.20;;;1.80;;
52434;SDS011;38354;52.892;6.148;2023-06-14T17:02:16;4.28;;;1.75;;
52434;SDS011;38354;52.892;6.148;2023-06-14T17:04:42;6.60;;;1.77;;
52434;SDS011;38354;52.892;6.148;2023-06-14T17:07:08;4.68;;;1.85;;
52434;SDS011;38354;52.892;6.148;2023-06-14T17:09:33;7.20;;;1.95;;
52434;SDS011;38354;52.892;6.148;2023-06-14T17:11:59;9.32;;;2.08;;
52434;SDS011;38354;52.892;6.148;2023-06-14T17:14:26;5.45;;;2.00;;
52434;SDS011;38354;52.892;6.148;2023-06-14T17:16:52;5.45;;;2.10;;
52434;SDS011;38354;52.892;6.148;2023-06-14T17:19:18;9.48;;;2.00;;
52434;SDS011;38354;52.892;6.148;2023-06-14T17:21:43;3.50;;;1.73;;
52434;SDS011;38354;52.892;6.148;2023-06-14T17:24:14;5.75;;;2.17;;
52434;SDS011;38354;52.892;6.148;2023-06-14T17:26:39;8.05;;;1.88;;
52434;SDS011;38354;52.892;6.148;2023-06-14T17:29:05;6.32;;;2.10;;
52434;SDS011;38354;52.892;6.148;2023-06-14T17:31:31;3.92;;;2.30;;
52434;SDS011;38354;52.892;6.148;2023-06-14T17:33:56;4.32;;;1.75;;
52434;SDS011;38354;52.892;6.148;2023-06-14T17:36:22;3.17;;;2.17;;
52434;SDS011;38354;52.892;6.148;2023-06-14T17:38:48;5.53;;;2.00;;
52434;SDS011;38354;52.892;6.148;2023-06-14T17:41:16;9.00;;;2.20;;
52434;SDS011;38354;52.892;6.148;2023-06-14T17:43:42;4.65;;;2.00;;
52434;SDS011;38354;52.892;6.148;2023-06-14T17:46:09;5.22;;;2.40;;
52434;SDS011;38354;52.892;6.148;2023-06-14T17:48:35;4.47;;;2.05;;
52434;SDS011;38354;52.892;6.148;2023-06-14T17:51:01;8.68;;;2.13;;
52434;SDS011;38354;52.892;6.148;2023-06-14T17:53:27;3.65;;;1.92;;
52434;SDS011;38354;52.892;6.148;2023-06-14T17:55:53;7.18;;;2.30;;
52434;SDS011;38354;52.892;6.148;2023-06-14T17:58:19;6.40;;;2.63;;
52434;SDS011;38354;52.892;6.148;2023-06-14T18:00:48;3.72;;;2.20;;